Time;durP1;ratioP1;P1;durP2;ratioP2;P2;SDS_P1;SDS_P2;PMS_P1;PMS_P2;Temp;Humidity;BMP_temperature;BMP_pressure;BME280_temperature;BME280_humidity;BME280_pressure;Samples;Min_cycle;Max_cycle;Signal;HPM_P1;HPM_P2
2021/05/30 00:00:10;;;;;;;4.28;3.72;;;14.50;99.90;;;;;;5092445;28;20089;-79
2021/05/30 00:02:36;;;;;;;4.80;3.83;;;14.50;99.90;;;;;;5095521;28;20027;-79
2021/05/30 00:05:04;;;;;;;6.43;3.95;;;14.40;99.90;;;;;;5112799;28;20072;-79
2021/05/30 00:07:30;;;;;;;5.40;4.45;;;14.40;99.90;;;;;;5112754;28;20036;-79
2021/05/30 00:09:56;;;;;;;3.83;3.28;;;14.40;99.90;;;;;;5112690;28;20046;-79
2021/05/30 00:12:22;;;;;;;8.88;3.45;;;14.40;99.90;;;;;;5112763;28;20015;-79
2021/05/30 00:14:49;;;;;;;4.45;2.85;;;14.30;99.90;;;;;;5112802;28;20027;-79
2021/05/30 00:17:15;;;;;;;6.18;4.03;;;14.20;99.90;;;;;;5112236;28;20479;-79
2021/05/30 00:19:42;;;;;;;4.07;3.72;;;14.00;99.90;;;;;;5111404;28;20427;-79
2021/05/30 00:22:08;;;;;;;6.70;3.83;;;14.00;99.90;;;;;;5112361;28;20020;-79
2021/05/30 00:24:35;;;;;;;4.38;3.97;;;14.10;99.90;;;;;;5112717;28;20030;-79
2021/05/30 00:27:01;;;;;;;4.15;3.45;;;14.20;99.90;;;;;;5111982;27;20032;-79
2021/05/30 00:29:26;;;;;;;6.93;3.50;;;14.20;99.90;;;;;;5112067;28;20020;-79
2021/05/30 00:31:53;;;;;;;6.78;3.58;;;14.10;99.90;;;;;;5111917;28;20047;-79
2021/05/30 00:34:18;;;;;;;7.40;3.45;;;14.10;99.90;;;;;;5112174;28;20038;-79
2021/05/30 00:36:44;;;;;;;6.18;3.97;;;13.90;99.90;;;;;;5112485;28;20118;-79
2021/05/30 00:39:10;;;;;;;5.60;3.80;;;14.00;99.90;;;;;;5112238;28;20023;-79
2021/05/30 00:41:36;;;;;;;6.68;3.15;;;14.00;99.90;;;;;;5112348;28;20035;-79
2021/05/30 00:44:02;;;;;;;6.95;3.50;;;13.90;99.90;;;;;;5112221;28;20055;-79
2021/05/30 00:46:29;;;;;;;4.90;4.35;;;13.90;99.90;;;;;;5111945;28;20028;-79
2021/05/30 00:48:56;;;;;;;4.28;3.30;;;14.00;99.90;;;;;;5112108;28;20035;-79
2021/05/30 00:51:22;;;;;;;4.18;3.33;;;13.80;99.90;;;;;;5112063;28;20028;-79
2021/05/30 00:53:48;;;;;;;4.18;3.10;;;13.60;99.90;;;;;;5112308;28;20031;-79
2021/05/30 00:56:15;;;;;;;6.43;3.20;;;13.60;99.90;;;;;;5112085;28;20039;-79
2021/05/30 00:58:41;;;;;;;3.65;3.35;;;13.60;99.90;;;;;;5110839;28;20399;-79
2021/05/30 01:01:08;;;;;;;4.72;3.72;;;13.60;99.90;;;;;;5111694;28;20108;-79
2021/05/30 01:03:37;;;;;;;4.82;3.33;;;13.60;99.90;;;;;;5112041;28;20157;-79
2021/05/30 01:06:04;;;;;;;6.30;3.17;;;13.40;99.90;;;;;;5111953;28;20022;-79
2021/05/30 01:08:30;;;;;;;4.38;3.10;;;13.20;99.90;;;;;;5112155;28;20059;-79
2021/05/30 01:10:59;;;;;;;5.53;3.53;;;13.30;99.90;;;;;;5112148;28;20024;-79
2021/05/30 01:13:26;;;;;;;4.40;3.33;;;13.50;99.90;;;;;;5111702;28;20024;-79
2021/05/30 01:15:52;;;;;;;4.80;3.42;;;13.80;99.90;;;;;;5112044;28;20047;-79
2021/05/30 01:18:23;;;;;;;7.47;4.20;;;13.90;99.90;;;;;;5111766;28;20529;-79
2021/05/30 01:20:51;;;;;;;5.30;3.25;;;13.80;99.90;;;;;;5110543;28;20026;-79
2021/05/30 01:23:18;;;;;;;3.90;3.53;;;13.90;99.90;;;;;;5111854;28;20501;-79
2021/05/30 01:25:47;;;;;;;4.93;3.50;;;14.10;99.90;;;;;;5111854;28;20115;-79
2021/05/30 01:28:17;;;;;;;6.33;3.70;;;14.10;99.90;;;;;;5111734;28;20114;-79
2021/05/30 01:30:45;;;;;;;3.78;3.28;;;14.20;99.90;;;;;;5111463;28;20024;-79
2021/05/30 01:33:11;;;;;;;3.63;3.10;;;14.20;99.90;;;;;;5111720;28;20050;-79
2021/05/30 01:35:37;;;;;;;5.25;3.90;;;14.20;99.90;;;;;;5106135;28;20110;-79
2021/05/30 01:38:03;;;;;;;5.63;3.50;;;14.20;99.90;;;;;;5091516;28;20020;-79
2021/05/30 01:40:29;;;;;;;3.72;3.38;;;14.20;99.90;;;;;;5114656;28;20020;-79
2021/05/30 01:42:56;;;;;;;3.92;3.63;;;14.30;99.90;;;;;;5115649;28;20038;-79
2021/05/30 01:45:24;;;;;;;5.57;3.90;;;14.30;99.90;;;;;;5115068;28;20031;-79
2021/05/30 01:47:50;;;;;;;5.03;3.83;;;14.30;99.90;;;;;;5115615;28;20057;-79
2021/05/30 01:50:22;;;;;;;4.03;3.63;;;14.20;99.90;;;;;;5115411;28;20475;-79
2021/05/30 01:52:49;;;;;;;5.50;4.20;;;14.30;99.90;;;;;;5115485;28;20476;-79
2021/05/30 01:55:29;;;;;;;4.28;3.88;;;14.40;99.90;;;;;;5115458;28;20104;-79
2021/05/30 01:57:57;;;;;;;4.15;3.40;;;14.60;99.90;;;;;;5115156;28;20039;-79
2021/05/30 02:00:24;;;;;;;4.82;3.60;;;14.70;99.90;;;;;;5097204;28;20123;-79
2021/05/30 02:02:53;;;;;;;4.80;3.90;;;14.80;99.90;;;;;;5094782;28;20024;-79
2021/05/30 02:05:20;;;;;;;4.03;3.45;;;14.80;99.90;;;;;;5094713;28;20063;-79
2021/05/30 02:07:48;;;;;;;3.40;3.10;;;14.80;99.90;;;;;;5093442;28;20036;-79
2021/05/30 02:10:15;;;;;;;8.77;3.88;;;14.70;99.90;;;;;;5094678;28;20020;-79
2021/05/30 02:12:45;;;;;;;5.20;3.58;;;14.60;99.90;;;;;;5094416;28;20024;-79
2021/05/30 02:15:13;;;;;;;4.60;3.78;;;14.50;99.90;;;;;;5094608;28;20024;-79
2021/05/30 02:17:40;;;;;;;7.28;4.82;;;14.50;99.90;;;;;;5094462;28;20028;-79
2021/05/30 02:20:09;;;;;;;4.22;3.70;;;14.50;99.90;;;;;;5094567;28;20510;-79
2021/05/30 02:22:34;;;;;;;5.60;4.13;;;14.50;99.90;;;;;;5093138;28;20411;-79
2021/05/30 02:25:00;;;;;;;5.00;3.63;;;14.60;99.90;;;;;;5094558;28;20035;-79
2021/05/30 02:27:26;;;;;;;6.97;4.47;;;14.70;99.90;;;;;;5113094;28;20023;-79
2021/05/30 02:29:52;;;;;;;7.57;4.38;;;14.80;99.90;;;;;;5114504;28;20077;-79
2021/05/30 02:32:18;;;;;;;4.00;3.53;;;14.90;99.90;;;;;;5114506;28;20040;-79
2021/05/30 02:34:44;;;;;;;4.13;3.75;;;14.80;99.90;;;;;;5114438;28;20027;-79
2021/05/30 02:37:12;;;;;;;7.07;4.47;;;14.90;99.90;;;;;;5114753;28;20069;-79
2021/05/30 02:39:38;;;;;;;4.35;3.20;;;14.80;99.90;;;;;;5114343;28;20027;-79
2021/05/30 02:42:06;;;;;;;4.22;3.83;;;14.80;99.90;;;;;;5114147;28;20059;-79
2021/05/30 02:44:32;;;;;;;4.00;3.63;;;14.80;99.90;;;;;;5114428;28;20020;-79
2021/05/30 02:46:58;;;;;;;4.30;3.40;;;14.80;99.90;;;;;;5113899;28;20398;-79
2021/05/30 02:49:24;;;;;;;4.43;3.67;;;14.80;99.90;;;;;;5114039;28;20033;-79
2021/05/30 02:51:51;;;;;;;4.88;3.33;;;14.80;99.90;;;;;;5113720;28;20024;-79
2021/05/30 02:54:17;;;;;;;5.43;3.45;;;14.90;99.90;;;;;;5114190;28;20030;-79
2021/05/30 02:56:43;;;;;;;3.95;3.55;;;14.80;99.90;;;;;;5113650;28;20050;-79
2021/05/30 02:59:09;;;;;;;4.15;3.67;;;14.80;99.90;;;;;;5114324;28;20062;-79
2021/05/30 03:01:35;;;;;;;5.28;3.80;;;14.80;99.90;;;;;;5114097;28;20456;-79
2021/05/30 03:04:02;;;;;;;4.30;3.80;;;14.90;99.90;;;;;;5113887;28;20058;-79
2021/05/30 03:06:28;;;;;;;5.78;3.50;;;14.80;99.90;;;;;;5113923;28;20023;-79
2021/05/30 03:08:54;;;;;;;5.72;4.50;;;14.90;99.90;;;;;;5113902;28;20031;-79
2021/05/30 03:11:20;;;;;;;5.85;4.30;;;14.90;99.90;;;;;;5113698;28;20020;-79
2021/05/30 03:13:49;;;;;;;3.85;3.55;;;14.90;99.90;;;;;;5112560;28;20106;-79
2021/05/30 03:16:15;;;;;;;6.90;3.80;;;14.80;99.90;;;;;;5103862;28;20024;-79
2021/05/30 03:18:41;;;;;;;6.18;4.50;;;14.80;99.90;;;;;;5093195;28;20031;-79
2021/05/30 03:21:07;;;;;;;6.43;3.85;;;14.70;99.90;;;;;;5093637;28;20012;-79
2021/05/30 03:23:32;;;;;;;4.50;3.83;;;14.70;99.90;;;;;;5093243;28;20476;-79
2021/05/30 03:25:58;;;;;;;4.80;4.22;;;14.70;99.90;;;;;;5092784;28;20025;-79
2021/05/30 03:28:24;;;;;;;4.72;3.80;;;14.70;99.90;;;;;;5110776;28;20084;-79
2021/05/30 03:30:50;;;;;;;4.72;3.80;;;14.80;99.90;;;;;;5113192;28;20016;-79
2021/05/30 03:33:16;;;;;;;4.57;4.18;;;14.80;99.90;;;;;;5113352;28;20051;-79
2021/05/30 03:35:44;;;;;;;5.32;4.65;;;14.80;99.90;;;;;;5113415;28;20065;-79
2021/05/30 03:38:11;;;;;;;6.80;4.28;;;14.80;99.90;;;;;;5113363;28;20099;-79
2021/05/30 03:43:09;;;;;;;3.65;3.35;;;14.80;99.90;;;;;;5113321;28;20028;-79
2021/05/30 03:45:35;;;;;;;4.50;4.10;;;14.80;99.90;;;;;;5113188;28;20364;-79
2021/05/30 03:48:01;;;;;;;5.22;4.35;;;14.90;99.90;;;;;;5113095;28;20032;-79
2021/05/30 03:50:27;;;;;;;5.18;3.88;;;14.90;99.90;;;;;;5113197;28;20031;-79
2021/05/30 03:52:54;;;;;;;9.48;4.10;;;14.80;99.90;;;;;;5112974;28;20487;-79
2021/05/30 03:55:20;;;;;;;5.35;3.97;;;14.70;99.90;;;;;;5112782;28;20015;-79
2021/05/30 03:57:46;;;;;;;5.30;3.90;;;14.60;99.90;;;;;;5112798;28;20031;-79
2021/05/30 04:00:15;;;;;;;6.82;4.60;;;14.40;99.90;;;;;;5112974;28;20031;-79
2021/05/30 04:02:41;;;;;;;5.30;4.00;;;14.50;99.90;;;;;;5111858;28;20475;-79
2021/05/30 04:05:08;;;;;;;4.15;3.75;;;14.60;99.90;;;;;;5113022;28;20031;-80
2021/05/30 04:07:36;;;;;;;7.25;4.50;;;14.70;99.90;;;;;;5112905;28;20057;-80
2021/05/30 04:10:06;;;;;;;4.78;4.38;;;14.80;99.90;;;;;;5112242;28;20034;-80
2021/05/30 04:12:36;;;;;;;5.07;4.55;;;14.90;99.90;;;;;;5112756;28;20043;-80
2021/05/30 04:15:03;;;;;;;6.00;3.85;;;15.00;99.90;;;;;;5111773;28;20049;-80
2021/05/30 04:17:29;;;;;;;6.68;3.83;;;14.90;99.90;;;;;;5107001;27;20521;-80
2021/05/30 04:19:55;;;;;;;4.38;3.97;;;14.90;99.90;;;;;;5111945;27;20032;-80
2021/05/30 04:22:20;;;;;;;5.95;3.72;;;14.90;99.90;;;;;;5118531;27;20042;-80
2021/05/30 04:24:46;;;;;;;4.28;3.85;;;15.00;99.90;;;;;;5104799;27;20019;-80
2021/05/30 04:27:12;;;;;;;5.25;3.97;;;14.90;99.90;;;;;;5112099;28;20030;-80
2021/05/30 04:29:38;;;;;;;9.57;4.38;;;14.90;99.90;;;;;;5112465;28;20375;-80
2021/05/30 04:32:05;;;;;;;5.32;3.78;;;14.90;99.90;;;;;;5128589;27;20049;-80
2021/05/30 04:34:30;;;;;;;5.50;3.83;;;14.90;99.90;;;;;;5130753;27;20073;-80
2021/05/30 04:36:56;;;;;;;4.82;3.50;;;14.80;99.90;;;;;;5131982;27;20422;-80
2021/05/30 04:39:22;;;;;;;4.55;3.78;;;14.80;99.90;;;;;;5132423;27;20023;-79
2021/05/30 04:41:48;;;;;;;4.65;4.25;;;14.80;99.90;;;;;;5132491;27;20031;-80
2021/05/30 04:44:14;;;;;;;5.47;3.83;;;14.90;99.90;;;;;;5132668;27;20031;-80
2021/05/30 04:46:39;;;;;;;4.88;3.40;;;14.90;99.90;;;;;;5133019;27;20030;-80
2021/05/30 04:49:05;;;;;;;4.45;3.60;;;14.90;99.90;;;;;;5132684;27;20023;-80
2021/05/30 04:51:31;;;;;;;4.40;4.00;;;15.00;99.90;;;;;;5108630;27;20032;-80
2021/05/30 04:53:58;;;;;;;6.07;3.72;;;15.00;99.90;;;;;;5097366;28;20502;-80
2021/05/30 04:56:25;;;;;;;9.43;4.70;;;15.00;99.90;;;;;;5105511;28;20024;-80
2021/05/30 04:58:51;;;;;;;5.63;4.25;;;15.00;99.90;;;;;;5108852;28;20032;-80
2021/05/30 05:01:17;;;;;;;5.10;4.30;;;14.70;99.90;;;;;;5109026;28;20168;-80
2021/05/30 05:03:43;;;;;;;6.32;4.40;;;14.60;99.90;;;;;;5106255;28;20528;-80
2021/05/30 05:06:09;;;;;;;4.50;3.83;;;14.80;99.90;;;;;;5105938;28;20118;-80
2021/05/30 05:08:35;;;;;;;4.78;3.75;;;14.90;99.90;;;;;;5100856;27;20020;-80
2021/05/30 05:11:01;;;;;;;4.35;3.80;;;14.90;99.90;;;;;;5092817;28;20043;-80
2021/05/30 05:13:26;;;;;;;4.85;4.00;;;14.90;99.90;;;;;;5097128;28;20019;-80
2021/05/30 05:15:53;;;;;;;8.65;5.15;;;15.00;99.90;;;;;;5099162;28;20039;-80
2021/05/30 05:18:22;;;;;;;4.82;4.38;;;15.10;99.90;;;;;;5095869;27;20031;-80
2021/05/30 05:20:48;;;;;;;5.10;4.22;;;15.20;99.90;;;;;;5108781;28;20024;-80
2021/05/30 05:23:15;;;;;;;5.68;4.38;;;15.20;99.90;;;;;;5106769;28;20011;-80
2021/05/30 05:25:52;;;;;;;5.50;4.47;;;15.30;99.90;;;;;;5112036;28;20019;-80
2021/05/30 05:28:18;;;;;;;6.93;4.55;;;15.40;99.90;;;;;;5104406;28;20114;-80
2021/05/30 05:30:44;;;;;;;4.72;4.32;;;15.50;99.90;;;;;;5111015;28;20027;-80
2021/05/30 05:33:10;;;;;;;6.53;5.28;;;15.40;99.90;;;;;;5099202;28;20040;-80
2021/05/30 05:35:36;;;;;;;4.93;4.53;;;15.50;99.90;;;;;;5102899;28;20023;-80
2021/05/30 05:38:02;;;;;;;6.20;5.03;;;15.60;99.90;;;;;;5106217;27;20391;-80
2021/05/30 05:40:29;;;;;;;6.70;6.05;;;15.70;99.90;;;;;;5103935;28;20078;-80
2021/05/30 05:42:56;;;;;;;6.07;5.50;;;15.60;99.90;;;;;;5101559;28;20119;-80
2021/05/30 05:45:23;;;;;;;6.78;6.07;;;15.70;99.90;;;;;;5104577;28;20036;-80
2021/05/30 05:47:50;;;;;;;6.47;4.78;;;15.80;99.90;;;;;;5109209;28;20114;-80
2021/05/30 05:50:17;;;;;;;6.90;5.95;;;16.00;99.90;;;;;;5106938;28;20046;-80
2021/05/30 05:52:44;;;;;;;5.75;5.00;;;16.20;99.90;;;;;;5099212;28;20016;-80
2021/05/30 05:55:12;;;;;;;5.43;3.90;;;16.30;99.90;;;;;;5110442;28;20111;-80
2021/05/30 05:57:39;;;;;;;5.30;4.80;;;16.30;99.90;;;;;;5100357;28;20038;-80
2021/05/30 06:00:07;;;;;;;5.75;4.57;;;16.40;99.90;;;;;;5100326;28;20036;-79
2021/05/30 06:02:33;;;;;;;5.22;4.45;;;16.50;99.90;;;;;;5103217;28;20023;-80
2021/05/30 06:04:59;;;;;;;5.90;4.72;;;16.60;99.90;;;;;;5104399;28;20039;-80
2021/05/30 06:07:25;;;;;;;6.40;4.63;;;16.70;99.90;;;;;;5099287;28;20023;-80
2021/05/30 06:09:52;;;;;;;6.65;4.32;;;16.80;99.90;;;;;;5095357;28;20028;-80
2021/05/30 06:12:19;;;;;;;6.75;4.07;;;16.70;99.90;;;;;;5104082;28;20034;-81
2021/05/30 06:14:45;;;;;;;6.15;5.63;;;16.70;99.90;;;;;;5104187;28;20099;-80
2021/05/30 06:17:12;;;;;;;17.83;6.05;;;16.70;99.90;;;;;;5104383;28;20116;-86
2021/05/30 06:19:38;;;;;;;8.85;4.95;;;16.80;99.90;;;;;;5100283;28;20111;-81
2021/05/30 06:22:05;;;;;;;5.57;4.88;;;17.10;99.90;;;;;;5099199;28;20027;-81
2021/05/30 06:24:32;;;;;;;6.55;5.70;;;17.20;99.90;;;;;;5100642;28;20515;-83
2021/05/30 06:26:58;;;;;;;6.22;5.63;;;17.10;99.90;;;;;;5098935;28;20427;-80
2021/05/30 06:29:24;;;;;;;7.70;5.15;;;17.10;99.90;;;;;;5103955;28;20032;-80
2021/05/30 06:31:51;;;;;;;17.23;6.03;;;17.00;99.90;;;;;;5103920;28;20043;-80
2021/05/30 06:34:17;;;;;;;7.38;4.75;;;17.00;99.90;;;;;;5103563;28;20037;-80
2021/05/30 06:36:43;;;;;;;10.27;5.60;;;17.00;99.90;;;;;;5099084;28;20028;-80
2021/05/30 06:39:10;;;;;;;5.93;5.32;;;17.10;99.90;;;;;;5106939;28;20024;-80
2021/05/30 06:41:36;;;;;;;9.45;5.78;;;17.20;99.90;;;;;;5100707;28;20035;-80
2021/05/30 06:44:06;;;;;;;10.98;5.93;;;17.50;99.90;;;;;;5104368;28;20467;-80
2021/05/30 06:46:35;;;;;;;7.15;6.32;;;17.80;99.90;;;;;;5104055;28;20026;-81
2021/05/30 06:49:02;;;;;;;7.03;5.30;;;18.20;99.90;;;;;;5099471;28;20495;-80
2021/05/30 06:51:32;;;;;;;11.63;6.22;;;18.40;99.90;;;;;;5108893;28;20019;-81
2021/05/30 06:53:59;;;;;;;10.05;5.88;;;18.60;99.90;;;;;;5107778;28;20516;-81
2021/05/30 06:56:26;;;;;;;8.07;5.78;;;18.70;99.90;;;;;;5114338;28;20044;-81
2021/05/30 06:58:53;;;;;;;7.45;6.22;;;18.70;99.90;;;;;;5113716;28;20503;-81
2021/05/30 07:01:20;;;;;;;13.38;6.32;;;18.60;99.90;;;;;;5114221;28;20445;-81
2021/05/30 07:03:47;;;;;;;6.97;5.95;;;18.60;99.90;;;;;;5113859;28;20117;-81
2021/05/30 07:06:13;;;;;;;6.93;5.53;;;18.60;99.90;;;;;;5113937;28;20115;-81
2021/05/30 07:08:39;;;;;;;6.72;6.13;;;18.60;99.90;;;;;;5114008;28;20027;-81
2021/05/30 07:11:05;;;;;;;6.88;5.78;;;18.50;99.90;;;;;;5113832;28;20028;-81
2021/05/30 07:13:31;;;;;;;20.70;5.88;;;18.70;99.90;;;;;;5113732;28;20087;-81
2021/05/30 07:15:57;;;;;;;8.15;6.07;;;19.00;99.40;;;;;;5113247;28;20133;-81
2021/05/30 07:18:23;;;;;;;7.75;5.78;;;19.00;99.30;;;;;;5113568;28;20486;-81
2021/05/30 07:20:52;;;;;;;7.50;6.32;;;19.10;99.10;;;;;;5113670;28;20054;-81
2021/05/30 07:23:18;;;;;;;8.25;6.07;;;19.20;98.00;;;;;;5112456;28;20028;-81
2021/05/30 07:25:44;;;;;;;10.32;6.65;;;19.40;98.20;;;;;;5113715;28;20038;-81
2021/05/30 07:28:09;;;;;;;28.52;7.35;;;19.50;97.70;;;;;;5113432;28;20028;-81
2021/05/30 07:30:35;;;;;;;8.40;6.35;;;19.50;96.60;;;;;;5112248;28;20544;-81
2021/05/30 07:33:02;;;;;;;16.67;6.78;;;19.30;96.50;;;;;;5112982;28;20044;-81
2021/05/30 07:35:32;;;;;;;7.55;5.72;;;19.40;96.60;;;;;;5113526;28;20123;-81
2021/05/30 07:37:58;;;;;;;6.65;5.95;;;19.40;96.00;;;;;;5113275;28;20019;-81
2021/05/30 07:40:25;;;;;;;9.75;6.65;;;19.40;95.20;;;;;;5113444;28;20032;-81
2021/05/30 07:42:52;;;;;;;8.30;5.65;;;19.70;94.90;;;;;;5095748;28;20056;-81
2021/05/30 07:45:18;;;;;;;6.80;6.10;;;19.70;94.90;;;;;;5092884;28;20559;-81
2021/05/30 07:47:45;;;;;;;7.78;6.00;;;19.60;94.90;;;;;;5092740;28;20107;-81
2021/05/30 07:50:12;;;;;;;7.25;6.30;;;19.70;94.90;;;;;;5092634;28;20395;-81
2021/05/30 07:52:41;;;;;;;6.75;5.65;;;19.90;94.70;;;;;;5092806;28;20051;-81
2021/05/30 07:55:08;;;;;;;8.45;5.30;;;19.90;94.40;;;;;;5092710;28;20514;-81
2021/05/30 07:57:34;;;;;;;6.50;5.30;;;20.20;94.90;;;;;;5092803;28;20024;-81
2021/05/30 08:00:01;;;;;;;6.07;5.53;;;20.40;93.80;;;;;;5092562;28;20035;-81
2021/05/30 08:02:27;;;;;;;7.75;5.43;;;20.60;93.20;;;;;;5092225;28;20032;-81
2021/05/30 08:04:55;;;;;;;9.07;6.00;;;20.70;92.30;;;;;;5092642;28;20032;-81
2021/05/30 08:07:22;;;;;;;6.78;5.30;;;20.90;92.60;;;;;;5110740;28;20042;-81
2021/05/30 08:09:48;;;;;;;6.22;5.63;;;21.00;93.00;;;;;;5112967;28;20026;-80
2021/05/30 08:12:14;;;;;;;7.20;5.07;;;20.80;92.40;;;;;;5112700;28;20094;-81
2021/05/30 08:14:40;;;;;;;5.90;4.93;;;20.60;92.60;;;;;;5112404;28;20106;-81
2021/05/30 08:17:06;;;;;;;5.95;5.28;;;20.80;92.40;;;;;;5112151;28;20497;-81
2021/05/30 08:19:33;;;;;;;7.43;5.78;;;20.80;92.70;;;;;;5112653;28;20019;-81
2021/05/30 08:21:58;;;;;;;6.70;4.90;;;20.70;92.50;;;;;;5112613;28;20028;-81
2021/05/30 08:24:24;;;;;;;8.05;4.82;;;20.80;91.40;;;;;;5097019;28;20035;-81
2021/05/30 08:26:52;;;;;;;5.18;4.68;;;20.80;91.30;;;;;;5092298;28;20095;-81
2021/05/30 08:29:20;;;;;;;7.00;5.03;;;20.80;91.30;;;;;;5100118;28;20039;-81
2021/05/30 08:31:47;;;;;;;7.45;5.88;;;21.00;92.30;;;;;;5091969;28;20099;-81
2021/05/30 08:34:13;;;;;;;6.18;5.03;;;21.20;91.20;;;;;;5092153;28;20032;-81
2021/05/30 08:36:39;;;;;;;6.80;5.03;;;21.10;91.60;;;;;;5091940;28;20380;-81
2021/05/30 08:39:05;;;;;;;9.32;5.90;;;21.30;90.80;;;;;;5092060;28;20024;-81
2021/05/30 08:41:31;;;;;;;5.60;5.07;;;21.50;90.80;;;;;;5091869;28;20388;-81
2021/05/30 08:43:57;;;;;;;4.68;4.28;;;21.80;90.00;;;;;;5091877;28;20438;-81
2021/05/30 08:46:26;;;;;;;5.07;4.53;;;22.10;89.40;;;;;;5091872;28;20020;-81
2021/05/30 08:48:52;;;;;;;5.78;5.00;;;22.20;88.10;;;;;;5091442;28;20047;-81
2021/05/30 08:51:18;;;;;;;7.38;4.60;;;22.20;87.50;;;;;;5091683;28;20443;-81
2021/05/30 08:53:44;;;;;;;5.38;4.65;;;22.20;86.90;;;;;;5091956;28;20472;-81
2021/05/30 08:56:12;;;;;;;5.00;4.50;;;22.40;86.50;;;;;;5091866;28;20434;-81
2021/05/30 08:58:42;;;;;;;6.72;4.65;;;22.70;88.50;;;;;;5091486;28;20108;-81
2021/05/30 09:01:16;;;;;;;12.93;4.85;;;22.70;85.40;;;;;;5091465;28;20488;-80
2021/05/30 09:04:08;;;;;;;9.75;5.65;;;22.70;85.90;;;;;;5106628;28;20040;-81
2021/05/30 09:06:39;;;;;;;5.18;4.60;;;23.40;85.90;;;;;;5111689;28;20035;-81
2021/05/30 09:09:08;;;;;;;6.32;4.78;;;23.40;84.40;;;;;;5111660;28;20024;-81
2021/05/30 09:11:48;;;;;;;9.23;5.63;;;23.70;83.90;;;;;;5111345;28;20470;-81
2021/05/30 09:14:21;;;;;;;14.00;4.50;;;24.20;79.70;;;;;;5111225;28;20517;-81
2021/05/30 09:16:59;;;;;;;6.03;4.15;;;24.30;78.00;;;;;;5110805;28;20020;-81
2021/05/30 09:19:33;;;;;;;5.78;4.22;;;24.40;76.10;;;;;;5108511;28;20107;-81
2021/05/30 09:22:20;;;;;;;5.28;4.50;;;24.10;76.90;;;;;;5111574;28;20055;-81
2021/05/30 09:24:52;;;;;;;7.95;4.20;;;23.60;77.20;;;;;;5101792;28;20040;-81
2021/05/30 09:27:19;;;;;;;4.95;4.00;;;23.70;78.60;;;;;;5111478;28;20483;-81
2021/05/30 09:29:45;;;;;;;7.90;4.57;;;23.80;77.80;;;;;;5111864;28;20016;-81
2021/05/30 09:32:11;;;;;;;5.25;4.75;;;24.20;77.10;;;;;;5111795;28;20082;-81
2021/05/30 09:34:41;;;;;;;7.70;4.15;;;24.40;76.20;;;;;;5111774;28;20043;-81
2021/05/30 09:37:08;;;;;;;8.90;4.32;;;24.90;76.70;;;;;;5111780;28;20030;-81
2021/05/30 09:39:35;;;;;;;6.38;4.95;;;24.90;75.30;;;;;;5111667;28;20046;-81
2021/05/30 09:42:34;;;;;;;6.30;4.07;;;25.20;75.70;;;;;;5111579;28;20032;-81
2021/05/30 09:45:08;;;;;;;7.28;4.63;;;25.30;74.80;;;;;;5111800;28;20042;-81
2021/05/30 09:47:46;;;;;;;4.90;4.45;;;26.10;76.50;;;;;;5111052;28;20038;-81
2021/05/30 09:50:18;;;;;;;4.53;3.42;;;26.70;74.30;;;;;;5111601;28;20023;-81
2021/05/30 09:52:48;;;;;;;5.60;3.90;;;26.30;68.80;;;;;;5111528;28;20031;-81
2021/05/30 09:55:27;;;;;;;7.65;3.80;;;25.90;71.30;;;;;;5111712;28;20023;-82
2021/05/30 09:58:19;;;;;;;6.77;3.90;;;26.40;72.10;;;;;;5111339;28;20028;-81
2021/05/30 10:00:58;;;;;;;12.27;4.47;;;26.90;71.50;;;;;;5111442;28;20035;-81
2021/05/30 10:03:25;;;;;;;3.42;3.08;;;27.50;71.90;;;;;;5115369;28;20020;-81
2021/05/30 10:05:51;;;;;;;5.22;3.95;;;28.00;70.40;;;;;;5115145;28;20032;-81
2021/05/30 10:08:18;;;;;;;6.95;3.60;;;28.00;66.00;;;;;;5114836;28;20387;-81
2021/05/30 10:10:45;;;;;;;6.05;3.67;;;29.00;67.10;;;;;;5113693;27;20059;-82
2021/05/30 10:13:11;;;;;;;8.43;3.67;;;29.90;67.00;;;;;;5114576;27;20082;-82
2021/05/30 10:15:38;;;;;;;9.32;4.22;;;32.00;61.80;;;;;;5114337;28;20027;-81
2021/05/30 10:18:18;;;;;;;4.40;3.75;;;33.60;56.90;;;;;;5114438;28;20077;-81
2021/05/30 10:20:45;;;;;;;3.63;3.22;;;33.00;54.10;;;;;;5114223;28;20019;-82
2021/05/30 10:23:15;;;;;;;3.50;3.20;;;33.40;54.20;;;;;;5114484;28;20030;-82
2021/05/30 10:25:41;;;;;;;7.15;4.30;;;34.80;54.20;;;;;;5114134;28;20088;-82
2021/05/30 10:28:17;;;;;;;23.42;4.95;;;34.70;52.20;;;;;;5114854;28;20417;-82
2021/05/30 10:30:45;;;;;;;7.88;5.63;;;35.30;52.40;;;;;;5114562;28;20035;-82
2021/05/30 10:33:22;;;;;;;9.23;5.57;;;33.30;49.60;;;;;;5114616;28;20073;-82
2021/05/30 10:35:49;;;;;;;4.68;3.60;;;33.80;51.80;;;;;;5114418;28;20038;-82
2021/05/30 10:38:40;;;;;;;5.32;4.15;;;34.90;51.60;;;;;;5114560;28;20049;-82
2021/05/30 10:41:17;;;;;;;5.97;3.80;;;36.70;49.50;;;;;;5113606;28;20031;-79
2021/05/30 10:43:44;;;;;;;4.03;3.28;;;36.70;47.80;;;;;;5112230;28;20387;-82
2021/05/30 10:46:10;;;;;;;6.40;3.60;;;37.70;47.80;;;;;;5114097;28;20088;-82
2021/05/30 10:48:38;;;;;;;6.10;4.00;;;37.40;47.00;;;;;;5111020;28;20031;-82
2021/05/30 10:53:43;;;;;;;5.18;3.30;;;37.40;44.00;;;;;;5112060;28;20026;-80
2021/05/30 10:56:18;;;;;;;4.45;3.60;;;34.70;48.20;;;;;;5113446;28;20395;-79
2021/05/30 10:59:05;;;;;;;8.77;3.67;;;35.00;49.70;;;;;;5111907;28;20437;-80
2021/05/30 11:01:34;;;;;;;4.15;3.60;;;37.30;47.60;;;;;;5112853;28;20111;-80
2021/05/30 11:04:24;;;;;;;3.97;3.67;;;37.00;42.60;;;;;;5113624;27;20024;-80
2021/05/30 11:06:58;;;;;;;3.42;3.08;;;38.30;45.90;;;;;;5101753;28;20035;-82
2021/05/30 11:09:45;;;;;;;7.25;3.20;;;39.00;44.30;;;;;;5113669;27;20480;-83
2021/05/30 11:12:28;;;;;;;3.53;3.00;;;36.80;47.90;;;;;;5104388;28;20564;-82
2021/05/30 11:15:12;;;;;;;3.55;3.25;;;34.10;50.00;;;;;;5113407;28;20051;-82
2021/05/30 11:17:56;;;;;;;2.97;2.78;;;32.10;53.40;;;;;;5113120;28;20027;-79
2021/05/30 11:20:32;;;;;;;4.38;4.07;;;31.20;55.20;;;;;;5113850;28;20039;-80
2021/05/30 11:23:03;;;;;;;4.55;4.18;;;31.40;55.40;;;;;;5113462;28;20088;-80
2021/05/30 11:25:49;;;;;;;7.60;3.75;;;34.70;53.20;;;;;;5113408;28;20024;-79
2021/05/30 11:28:18;;;;;;;3.20;2.90;;;38.20;47.80;;;;;;5113616;28;20538;-80
2021/05/30 11:30:55;;;;;;;9.48;3.47;;;34.30;47.70;;;;;;5113347;27;20031;-79
2021/05/30 11:33:21;;;;;;;5.18;4.18;;;33.60;49.20;;;;;;5112081;28;20054;-79
2021/05/30 11:35:50;;;;;;;4.20;3.80;;;37.00;50.00;;;;;;5112080;28;20020;-82
2021/05/30 11:38:16;;;;;;;3.90;3.60;;;39.40;45.70;;;;;;5111859;28;20554;-81
2021/05/30 11:40:42;;;;;;;3.67;3.30;;;40.10;43.00;;;;;;5112000;28;20114;-79
2021/05/30 11:43:15;;;;;;;3.88;3.60;;;41.00;42.10;;;;;;5112126;28;20024;-79
2021/05/30 11:45:43;;;;;;;4.35;3.33;;;41.00;40.90;;;;;;5112150;28;20751;-79
2021/05/30 11:48:18;;;;;;;3.63;3.33;;;42.40;42.90;;;;;;5111467;28;20524;-80
2021/05/30 11:50:53;;;;;;;7.78;3.35;;;38.10;42.40;;;;;;5111305;28;20121;-80
2021/05/30 11:53:26;;;;;;;3.83;3.30;;;34.80;47.40;;;;;;5109587;28;20503;-79
2021/05/30 11:55:53;;;;;;;3.70;3.25;;;32.70;50.70;;;;;;5108895;28;20051;-79
2021/05/30 11:58:19;;;;;;;4.32;2.90;;;31.90;52.60;;;;;;5111561;28;20027;-80
2021/05/30 12:00:45;;;;;;;6.55;3.10;;;31.20;53.70;;;;;;5110946;28;20030;-80
2021/05/30 12:03:13;;;;;;;8.40;2.88;;;30.50;55.20;;;;;;5108521;28;20034;-79
2021/05/30 12:05:40;;;;;;;3.40;2.80;;;29.80;56.50;;;;;;5111536;28;20047;-79
2021/05/30 12:08:17;;;;;;;3.20;3.00;;;29.40;56.90;;;;;;5109625;28;20105;-81
2021/05/30 12:10:54;;;;;;;4.07;3.00;;;29.20;57.40;;;;;;5111629;28;20491;-82
2021/05/30 12:13:37;;;;;;;3.67;3.33;;;29.60;58.00;;;;;;5110480;28;20489;-81
2021/05/30 12:16:16;;;;;;;3.97;3.58;;;32.90;54.20;;;;;;5111764;28;20023;-79
2021/05/30 12:18:53;;;;;;;7.82;3.20;;;37.00;46.30;;;;;;5112503;28;20027;-81
2021/05/30 12:21:19;;;;;;;13.20;4.25;;;36.60;45.00;;;;;;5112290;28;20491;-82
2021/05/30 12:23:45;;;;;;;7.22;2.85;;;34.50;47.80;;;;;;5111993;28;20054;-83
2021/05/30 12:26:12;;;;;;;11.05;3.50;;;31.90;50.00;;;;;;5112203;28;20028;-83
2021/05/30 12:28:40;;;;;;;16.25;3.97;;;31.00;52.40;;;;;;5112555;28;20027;-82
2021/05/30 12:31:17;;;;;;;11.52;3.38;;;31.80;53.80;;;;;;5112391;28;20031;-82
2021/05/30 12:33:54;;;;;;;11.82;3.15;;;33.30;50.80;;;;;;5112315;28;20052;-82
2021/05/30 12:36:48;;;;;;;18.27;3.30;;;32.70;48.90;;;;;;5111875;28;20122;-82
2021/05/30 12:39:16;;;;;;;9.55;3.17;;;31.70;51.90;;;;;;5112349;28;20118;-82
2021/05/30 12:41:45;;;;;;;16.90;3.45;;;30.80;54.20;;;;;;5112517;28;20015;-83
2021/05/30 12:44:12;;;;;;;8.90;2.72;;;30.30;56.00;;;;;;5112221;28;20020;-82
2021/05/30 12:46:51;;;;;;;10.13;2.88;;;29.90;56.90;;;;;;5112259;28;20020;-82
2021/05/30 12:49:17;;;;;;;7.53;3.20;;;29.40;57.20;;;;;;5111906;28;20487;-82
2021/05/30 12:52:02;;;;;;;6.50;3.33;;;28.80;58.60;;;;;;5111994;28;20036;-82
2021/05/30 12:54:30;;;;;;;7.32;3.20;;;28.20;57.50;;;;;;5111996;28;20016;-82
2021/05/30 12:56:56;;;;;;;8.70;3.22;;;27.80;59.50;;;;;;5112014;28;20019;-81